sensor_id;sensor_type;location;lat;lon;timestamp;pressure;altitude;pressure_sealevel;temperature;humidity
64668;BME280;51077;42.716;23.344;2023-05-25T00:00:14;95322.56;;;19.45;51.99
64668;BME280;51077;42.716;23.344;2023-05-25T00:02:41;95316.66;;;19.41;52.09
64668;BME280;51077;42.716;23.344;2023-05-25T00:05:11;95324.13;;;19.38;52.32
64668;BME280;51077;42.716;23.344;2023-05-25T00:07:37;95323.19;;;19.36;52.42
64668;BME280;51077;42.716;23.344;2023-05-25T00:10:06;95329.91;;;19.32;52.46
64668;BME280;51077;42.716;23.344;2023-05-25T00:12:32;95329.56;;;19.28;52.51
64668;BME280;51077;42.716;23.344;2023-05-25T00:14:57;95331.44;;;19.26;52.67
64668;BME280;51077;42.716;23.344;2023-05-25T00:17:23;95322.91;;;19.24;52.77
64668;BME280;51077;42.716;23.344;2023-05-25T00:19:49;95327.41;;;19.19;52.68
64668;BME280;51077;42.716;23.344;2023-05-25T00:22:14;95323.72;;;19.17;52.86
64668;BME280;51077;42.716;23.344;2023-05-25T00:24:39;95324.88;;;19.14;52.88
64668;BME280;51077;42.716;23.344;2023-05-25T00:27:05;95323.22;;;19.11;53.22
64668;BME280;51077;42.716;23.344;2023-05-25T00:29:34;95316.03;;;19.07;53.07
64668;BME280;51077;42.716;23.344;2023-05-25T00:32:01;95319.94;;;19.04;53.11
64668;BME280;51077;42.716;23.344;2023-05-25T00:34:26;95309.94;;;19.01;53.29
64668;BME280;51077;42.716;23.344;2023-05-25T00:36:52;95318.66;;;18.98;53.41
64668;BME280;51077;42.716;23.344;2023-05-25T00:39:19;95320.56;;;18.95;53.46
64668;BME280;51077;42.716;23.344;2023-05-25T00:41:45;95319.63;;;18.93;53.64
64668;BME280;51077;42.716;23.344;2023-05-25T00:44:12;95324.31;;;18.90;53.69
64668;BME280;51077;42.716;23.344;2023-05-25T00:46:51;95327.47;;;18.87;53.76
64668;BME280;51077;42.716;23.344;2023-05-25T00:49:19;95325.81;;;18.83;53.95
64668;BME280;51077;42.716;23.344;2023-05-25T00:51:46;95328.25;;;18.79;54.07
64668;BME280;51077;42.716;23.344;2023-05-25T00:54:15;95339.38;;;18.79;54.08
64668;BME280;51077;42.716;23.344;2023-05-25T00:56:52;95342.53;;;18.76;54.20
64668;BME280;51077;42.716;23.344;2023-05-25T00:59:27;95342.38;;;18.74;54.46
64668;BME280;51077;42.716;23.344;2023-05-25T01:01:58;95346.28;;;18.71;54.26
64668;BME280;51077;42.716;23.344;2023-05-25T01:04:27;95347.41;;;18.68;54.37
64668;BME280;51077;42.716;23.344;2023-05-25T01:06:55;95351.47;;;18.67;54.43
64668;BME280;51077;42.716;23.344;2023-05-25T01:09:23;95347.78;;;18.64;54.33
64668;BME280;51077;42.716;23.344;2023-05-25T01:11:51;95347.59;;;18.62;54.49
64668;BME280;51077;42.716;23.344;2023-05-25T01:14:19;95341.88;;;18.60;54.44
64668;BME280;51077;42.716;23.344;2023-05-25T01:16:50;95344.47;;;18.58;54.49
64668;BME280;51077;42.716;23.344;2023-05-25T01:19:16;95337.25;;;18.55;54.71
64668;BME280;51077;42.716;23.344;2023-05-25T01:22:12;95336.91;;;18.51;54.70
64668;BME280;51077;42.716;23.344;2023-05-25T01:24:45;95338.19;;;18.50;54.81
64668;BME280;51077;42.716;23.344;2023-05-25T01:27:30;95330.44;;;18.48;54.73
64668;BME280;51077;42.716;23.344;2023-05-25T01:30:01;95334.53;;;18.47;54.96
64668;BME280;51077;42.716;23.344;2023-05-25T01:32:27;95330.06;;;18.44;54.93
64668;BME280;51077;42.716;23.344;2023-05-25T01:34:54;95329.91;;;18.42;54.97
64668;BME280;51077;42.716;23.344;2023-05-25T01:37:20;95320.66;;;18.40;55.16
64668;BME280;51077;42.716;23.344;2023-05-25T01:39:48;95324.75;;;18.39;55.35
64668;BME280;51077;42.716;23.344;2023-05-25T01:42:14;95313.44;;;18.37;55.12
64668;BME280;51077;42.716;23.344;2023-05-25T01:44:40;95311.97;;;18.36;55.12
64668;BME280;51077;42.716;23.344;2023-05-25T01:50:06;95309.56;;;18.32;55.19
64668;BME280;51077;42.716;23.344;2023-05-25T01:52:40;95310.88;;;18.31;55.37
64668;BME280;51077;42.716;23.344;2023-05-25T01:55:14;95313.28;;;18.27;55.30
64668;BME280;51077;42.716;23.344;2023-05-25T01:57:44;95319.44;;;18.25;55.35
64668;BME280;51077;42.716;23.344;2023-05-25T02:00:14;95323.50;;;18.24;55.47
64668;BME280;51077;42.716;23.344;2023-05-25T02:02:41;95326.09;;;18.22;55.52
64668;BME280;51077;42.716;23.344;2023-05-25T02:05:08;95326.66;;;18.21;55.68
64668;BME280;51077;42.716;23.344;2023-05-25T02:07:35;95337.44;;;18.17;55.62
64668;BME280;51077;42.716;23.344;2023-05-25T02:10:00;95337.97;;;18.15;55.80
64668;BME280;51077;42.716;23.344;2023-05-25T02:12:26;95331.50;;;18.13;55.48
64668;BME280;51077;42.716;23.344;2023-05-25T02:14:51;95337.06;;;18.13;55.62
64668;BME280;51077;42.716;23.344;2023-05-25T02:17:16;95340.97;;;18.09;55.76
64668;BME280;51077;42.716;23.344;2023-05-25T02:19:42;95342.25;;;18.08;55.83
64668;BME280;51077;42.716;23.344;2023-05-25T02:22:08;95342.06;;;18.06;55.83
64668;BME280;51077;42.716;23.344;2023-05-25T02:24:34;95339.13;;;18.04;55.85
64668;BME280;51077;42.716;23.344;2023-05-25T02:26:59;95341.72;;;18.02;55.78
64668;BME280;51077;42.716;23.344;2023-05-25T02:29:26;95348.56;;;18.01;56.04
64668;BME280;51077;42.716;23.344;2023-05-25T02:31:51;95345.06;;;18.01;56.10
64668;BME280;51077;42.716;23.344;2023-05-25T02:34:16;95344.16;;;17.98;56.14
64668;BME280;51077;42.716;23.344;2023-05-25T02:36:42;95349.50;;;17.96;56.09
64668;BME280;51077;42.716;23.344;2023-05-25T02:39:10;95356.94;;;17.94;56.17
64668;BME280;51077;42.716;23.344;2023-05-25T02:41:36;95354.72;;;17.92;56.05
64668;BME280;51077;42.716;23.344;2023-05-25T02:44:02;95359.53;;;17.92;56.15
64668;BME280;51077;42.716;23.344;2023-05-25T02:46:27;95365.44;;;17.88;56.16
64668;BME280;51077;42.716;23.344;2023-05-25T02:48:52;95362.50;;;17.86;56.40
64668;BME280;51077;42.716;23.344;2023-05-25T02:51:18;95364.53;;;17.86;56.41
64668;BME280;51077;42.716;23.344;2023-05-25T02:53:43;95366.38;;;17.83;56.35
64668;BME280;51077;42.716;23.344;2023-05-25T02:56:08;95364.72;;;17.80;56.33
64668;BME280;51077;42.716;23.344;2023-05-25T02:58:37;95373.06;;;17.80;56.26
64668;BME280;51077;42.716;23.344;2023-05-25T03:01:02;95366.59;;;17.77;56.45
64668;BME280;51077;42.716;23.344;2023-05-25T03:03:29;95379.00;;;17.76;56.63
64668;BME280;51077;42.716;23.344;2023-05-25T03:05:55;95378.81;;;17.74;56.60
64668;BME280;51077;42.716;23.344;2023-05-25T03:08:24;95380.84;;;17.74;56.59
64668;BME280;51077;42.716;23.344;2023-05-25T03:10:49;95383.38;;;17.72;56.75
64668;BME280;51077;42.716;23.344;2023-05-25T03:13:15;95379.88;;;17.71;56.70
64668;BME280;51077;42.716;23.344;2023-05-25T03:15:40;95376.38;;;17.71;56.65
64668;BME280;51077;42.716;23.344;2023-05-25T03:18:06;95375.63;;;17.70;56.74
64668;BME280;51077;42.716;23.344;2023-05-25T03:20:31;95382.66;;;17.71;58.59
64668;BME280;51077;42.716;23.344;2023-05-25T03:22:57;95376.56;;;17.73;60.13
64668;BME280;51077;42.716;23.344;2023-05-25T03:25:23;95385.09;;;17.75;61.06
64668;BME280;51077;42.716;23.344;2023-05-25T03:27:52;95381.00;;;17.76;61.17
64668;BME280;51077;42.716;23.344;2023-05-25T03:30:19;95387.88;;;17.75;61.58
64668;BME280;51077;42.716;23.344;2023-05-25T03:32:44;95383.06;;;17.75;61.58
64668;BME280;51077;42.716;23.344;2023-05-25T03:35:09;95389.16;;;17.74;61.39
64668;BME280;51077;42.716;23.344;2023-05-25T03:37:35;95388.06;;;17.77;61.15
64668;BME280;51077;42.716;23.344;2023-05-25T03:40:00;95385.47;;;17.79;61.03
64668;BME280;51077;42.716;23.344;2023-05-25T03:42:26;95389.16;;;17.81;60.86
64668;BME280;51077;42.716;23.344;2023-05-25T03:44:52;95387.28;;;17.84;60.62
64668;BME280;51077;42.716;23.344;2023-05-25T03:47:17;95391.00;;;17.87;60.62
64668;BME280;51077;42.716;23.344;2023-05-25T03:49:42;95396.94;;;17.91;60.27
64668;BME280;51077;42.716;23.344;2023-05-25T03:52:08;95402.47;;;17.98;60.17
64668;BME280;51077;42.716;23.344;2023-05-25T03:54:33;95402.84;;;18.02;60.16
64668;BME280;51077;42.716;23.344;2023-05-25T03:56:58;95403.94;;;18.07;60.08
64668;BME280;51077;42.716;23.344;2023-05-25T03:59:25;95404.31;;;18.11;59.74
64668;BME280;51077;42.716;23.344;2023-05-25T04:01:51;95409.81;;;18.19;58.91
64668;BME280;51077;42.716;23.344;2023-05-25T04:04:16;95413.88;;;18.25;58.86
64668;BME280;51077;42.716;23.344;2023-05-25T04:06:42;95417.75;;;18.30;58.52
64668;BME280;51077;42.716;23.344;2023-05-25T04:09:10;95414.78;;;18.36;57.97
64668;BME280;51077;42.716;23.344;2023-05-25T04:11:36;95421.22;;;18.46;57.56
64668;BME280;51077;42.716;23.344;2023-05-25T04:14:01;95425.28;;;18.52;57.39
64668;BME280;51077;42.716;23.344;2023-05-25T04:16:27;95427.47;;;18.62;57.08
64668;BME280;51077;42.716;23.344;2023-05-25T04:18:53;95422.66;;;18.70;57.04
64668;BME280;51077;42.716;23.344;2023-05-25T04:21:18;95434.47;;;18.78;56.74
64668;BME280;51077;42.716;23.344;2023-05-25T04:23:43;95429.44;;;18.84;56.61
64668;BME280;51077;42.716;23.344;2023-05-25T04:26:09;95434.41;;;18.93;56.44
64668;BME280;51077;42.716;23.344;2023-05-25T04:28:35;95429.53;;;19.01;56.14
64668;BME280;51077;42.716;23.344;2023-05-25T04:31:05;95433.59;;;19.08;56.03
64668;BME280;51077;42.716;23.344;2023-05-25T04:33:31;95436.88;;;19.14;55.94
64668;BME280;51077;42.716;23.344;2023-05-25T04:35:58;95439.63;;;19.22;55.76
64668;BME280;51077;42.716;23.344;2023-05-25T04:38:24;95447.94;;;19.29;55.58
64668;BME280;51077;42.716;23.344;2023-05-25T04:40:50;95442.88;;;19.36;55.42
64668;BME280;51077;42.716;23.344;2023-05-25T04:43:18;95446.94;;;19.42;55.16
64668;BME280;51077;42.716;23.344;2023-05-25T04:45:44;95455.78;;;19.48;55.05
64668;BME280;51077;42.716;23.344;2023-05-25T04:48:11;95442.56;;;19.56;54.92
64668;BME280;51077;42.716;23.344;2023-05-25T04:50:37;95439.16;;;19.66;54.62
64668;BME280;51077;42.716;23.344;2023-05-25T04:53:04;95434.09;;;19.72;54.41
64668;BME280;51077;42.716;23.344;2023-05-25T04:55:30;95430.53;;;19.79;54.05
64668;BME280;51077;42.716;23.344;2023-05-25T04:57:55;95429.72;;;19.86;53.96
64668;BME280;51077;42.716;23.344;2023-05-25T05:00:21;95427.28;;;19.90;53.90
64668;BME280;51077;42.716;23.344;2023-05-25T05:02:46;95425.56;;;19.95;53.75
64668;BME280;51077;42.716;23.344;2023-05-25T05:05:12;95435.16;;;20.01;53.56
64668;BME280;51077;42.716;23.344;2023-05-25T05:07:37;95431.38;;;20.06;53.54
64668;BME280;51077;42.716;23.344;2023-05-25T05:10:03;95424.28;;;20.13;53.36
64668;BME280;51077;42.716;23.344;2023-05-25T05:12:28;95433.13;;;20.19;53.21
64668;BME280;51077;42.716;23.344;2023-05-25T05:14:54;95437.72;;;20.24;53.28
64668;BME280;51077;42.716;23.344;2023-05-25T05:17:20;95425.28;;;20.25;53.27
64668;BME280;51077;42.716;23.344;2023-05-25T05:19:46;95432.66;;;20.30;52.94
64668;BME280;51077;42.716;23.344;2023-05-25T05:22:11;95432.38;;;20.36;53.14
64668;BME280;51077;42.716;23.344;2023-05-25T05:24:39;95432.91;;;20.42;52.80
64668;BME280;51077;42.716;23.344;2023-05-25T05:27:04;95438.63;;;20.44;52.63
64668;BME280;51077;42.716;23.344;2023-05-25T05:29:30;95441.19;;;20.50;52.73
64668;BME280;51077;42.716;23.344;2023-05-25T05:31:55;95449.72;;;20.52;52.46
64668;BME280;51077;42.716;23.344;2023-05-25T05:34:21;95449.47;;;20.57;52.45
64668;BME280;51077;42.716;23.344;2023-05-25T05:36:46;95455.38;;;20.62;52.52
64668;BME280;51077;42.716;23.344;2023-05-25T05:39:12;95452.34;;;20.67;52.26
64668;BME280;51077;42.716;23.344;2023-05-25T05:41:38;95456.50;;;20.76;52.11
64668;BME280;51077;42.716;23.344;2023-05-25T05:44:03;95460.13;;;20.86;51.99
64668;BME280;51077;42.716;23.344;2023-05-25T05:46:28;95457.97;;;20.94;51.81
64668;BME280;51077;42.716;23.344;2023-05-25T05:48:54;95460.84;;;21.04;51.85
64668;BME280;51077;42.716;23.344;2023-05-25T05:51:19;95461.03;;;21.16;51.54
64668;BME280;51077;42.716;23.344;2023-05-25T05:53:44;95469.63;;;21.27;51.25
64668;BME280;51077;42.716;23.344;2023-05-25T05:56:17;95458.72;;;21.39;50.97
64668;BME280;51077;42.716;23.344;2023-05-25T05:58:43;95461.72;;;21.51;50.63
64668;BME280;51077;42.716;23.344;2023-05-25T06:01:09;95452.63;;;21.60;50.65
64668;BME280;51077;42.716;23.344;2023-05-25T06:03:34;95444.28;;;21.70;50.55
64668;BME280;51077;42.716;23.344;2023-05-25T06:05:59;95448.56;;;21.80;50.47
64668;BME280;51077;42.716;23.344;2023-05-25T06:08:25;95451.41;;;21.90;50.18
64668;BME280;51077;42.716;23.344;2023-05-25T06:10:51;95447.19;;;21.99;50.00
64668;BME280;51077;42.716;23.344;2023-05-25T06:13:16;95446.47;;;22.08;50.07
64668;BME280;51077;42.716;23.344;2023-05-25T06:15:42;95448.41;;;22.15;49.64
64668;BME280;51077;42.716;23.344;2023-05-25T06:18:07;95456.81;;;22.25;49.61
64668;BME280;51077;42.716;23.344;2023-05-25T06:20:33;95454.75;;;22.35;49.43
64668;BME280;51077;42.716;23.344;2023-05-25T06:22:59;95457.44;;;22.43;49.29
64668;BME280;51077;42.716;23.344;2023-05-25T06:25:25;95451.25;;;22.54;49.13
64668;BME280;51077;42.716;23.344;2023-05-25T06:27:50;95457.00;;;22.66;48.91
64668;BME280;51077;42.716;23.344;2023-05-25T06:30:16;95450.06;;;22.76;48.51
64668;BME280;51077;42.716;23.344;2023-05-25T06:32:41;95458.59;;;22.88;48.08
64668;BME280;51077;42.716;23.344;2023-05-25T06:35:07;95464.94;;;22.98;48.02
64668;BME280;51077;42.716;23.344;2023-05-25T06:37:33;95459.47;;;23.10;47.84
64668;BME280;51077;42.716;23.344;2023-05-25T06:40:05;95461.81;;;23.23;47.63
64668;BME280;51077;42.716;23.344;2023-05-25T06:42:34;95460.59;;;23.36;47.44
64668;BME280;51077;42.716;23.344;2023-05-25T06:45:00;95460.00;;;23.47;47.15
64668;BME280;51077;42.716;23.344;2023-05-25T06:47:25;95463.03;;;23.61;46.95
64668;BME280;51077;42.716;23.344;2023-05-25T06:49:50;95457.56;;;23.73;46.71
64668;BME280;51077;42.716;23.344;2023-05-25T06:52:16;95460.59;;;23.87;46.31
64668;BME280;51077;42.716;23.344;2023-05-25T06:54:41;95463.63;;;24.00;46.16
64668;BME280;51077;42.716;23.344;2023-05-25T06:57:06;95463.13;;;24.14;45.94
64668;BME280;51077;42.716;23.344;2023-05-25T06:59:32;95465.25;;;24.25;45.63
64668;BME280;51077;42.716;23.344;2023-05-25T07:01:58;95464.78;;;24.38;45.48
64668;BME280;51077;42.716;23.344;2023-05-25T07:04:24;95459.94;;;24.50;45.44
64668;BME280;51077;42.716;23.344;2023-05-25T07:06:49;95464.16;;;24.61;45.14
64668;BME280;51077;42.716;23.344;2023-05-25T07:09:16;95459.34;;;24.73;44.86
64668;BME280;51077;42.716;23.344;2023-05-25T07:11:41;95460.88;;;24.86;44.38
64668;BME280;51077;42.716;23.344;2023-05-25T07:14:07;95457.50;;;24.99;44.38
64668;BME280;51077;42.716;23.344;2023-05-25T07:16:32;95457.06;;;25.15;44.09
64668;BME280;51077;42.716;23.344;2023-05-25T07:18:58;95455.28;;;25.31;43.64
64668;BME280;51077;42.716;23.344;2023-05-25T07:21:23;95455.06;;;25.50;43.84
64668;BME280;51077;42.716;23.344;2023-05-25T07:23:49;95457.06;;;25.71;43.32
64668;BME280;51077;42.716;23.344;2023-05-25T07:26:14;95451.97;;;25.91;43.05
64668;BME280;51077;42.716;23.344;2023-05-25T07:28:40;95448.41;;;26.14;42.29
64668;BME280;51077;42.716;23.344;2023-05-25T07:31:06;95449.59;;;26.35;42.02
64668;BME280;51077;42.716;23.344;2023-05-25T07:33:32;95450.53;;;26.51;41.77
64668;BME280;51077;42.716;23.344;2023-05-25T07:35:57;95452.09;;;26.66;41.57
64668;BME280;51077;42.716;23.344;2023-05-25T07:38:22;95456.13;;;26.74;41.17
64668;BME280;51077;42.716;23.344;2023-05-25T07:40:48;95458.03;;;26.84;41.00
64668;BME280;51077;42.716;23.344;2023-05-25T07:43:14;95450.22;;;26.82;41.17
64668;BME280;51077;42.716;23.344;2023-05-25T07:45:39;95460.00;;;26.81;41.04
64668;BME280;51077;42.716;23.344;2023-05-25T07:48:05;95455.50;;;26.76;40.99
64668;BME280;51077;42.716;23.344;2023-05-25T07:50:31;95457.59;;;26.64;41.16
64668;BME280;51077;42.716;23.344;2023-05-25T07:53:00;95468.28;;;26.53;41.31
64668;BME280;51077;42.716;23.344;2023-05-25T07:55:26;95466.09;;;26.40;41.37
64668;BME280;51077;42.716;23.344;2023-05-25T07:57:52;95479.44;;;26.28;41.87
64668;BME280;51077;42.716;23.344;2023-05-25T08:00:18;95484.09;;;26.12;41.84
64668;BME280;51077;42.716;23.344;2023-05-25T08:02:43;95488.78;;;25.95;42.24
64668;BME280;51077;42.716;23.344;2023-05-25T08:05:09;95503.28;;;25.80;42.68
64668;BME280;51077;42.716;23.344;2023-05-25T08:07:34;95504.97;;;25.62;42.67
64668;BME280;51077;42.716;23.344;2023-05-25T08:10:00;95511.03;;;25.46;42.80
64668;BME280;51077;42.716;23.344;2023-05-25T08:12:26;95512.69;;;25.28;43.36
64668;BME280;51077;42.716;23.344;2023-05-25T08:14:51;95517.25;;;25.12;43.72
64668;BME280;51077;42.716;23.344;2023-05-25T08:17:18;95519.59;;;24.94;43.96
64668;BME280;51077;42.716;23.344;2023-05-25T08:19:44;95525.50;;;24.76;44.22
64668;BME280;51077;42.716;23.344;2023-05-25T08:22:09;95532.72;;;24.58;44.39
64668;BME280;51077;42.716;23.344;2023-05-25T08:24:35;95534.31;;;24.40;44.90
64668;BME280;51077;42.716;23.344;2023-05-25T08:27:01;95545.00;;;24.22;45.47
64668;BME280;51077;42.716;23.344;2023-05-25T08:29:26;95531.66;;;24.01;45.76
64668;BME280;51077;42.716;23.344;2023-05-25T08:31:55;95526.25;;;23.83;46.27
64668;BME280;51077;42.716;23.344;2023-05-25T08:34:21;95531.91;;;23.64;46.88
64668;BME280;51077;42.716;23.344;2023-05-25T08:36:46;95541.81;;;23.46;47.60
64668;BME280;51077;42.716;23.344;2023-05-25T08:39:12;95540.53;;;23.27;48.05
64668;BME280;51077;42.716;23.344;2023-05-25T08:41:43;95537.16;;;23.10;48.54
64668;BME280;51077;42.716;23.344;2023-05-25T08:44:09;95534.50;;;22.92;48.68
64668;BME280;51077;42.716;23.344;2023-05-25T08:46:34;95542.56;;;22.78;49.04
64668;BME280;51077;42.716;23.344;2023-05-25T08:49:13;95535.16;;;22.64;49.71
64668;BME280;51077;42.716;23.344;2023-05-25T08:51:52;95535.88;;;22.45;49.95
64668;BME280;51077;42.716;23.344;2023-05-25T08:54:23;95538.34;;;22.31;50.47
64668;BME280;51077;42.716;23.344;2023-05-25T08:59:37;95538.38;;;22.04;51.12
64668;BME280;51077;42.716;23.344;2023-05-25T09:04:42;95550.66;;;21.81;51.24
64668;BME280;51077;42.716;23.344;2023-05-25T09:07:08;95541.47;;;21.71;51.66
64668;BME280;51077;42.716;23.344;2023-05-25T09:09:34;95550.53;;;21.62;51.98
64668;BME280;51077;42.716;23.344;2023-05-25T09:12:02;95551.97;;;21.53;52.14
64668;BME280;51077;42.716;23.344;2023-05-25T09:14:28;95557.06;;;21.47;52.39
64668;BME280;51077;42.716;23.344;2023-05-25T09:16:54;95557.91;;;21.40;52.53
64668;BME280;51077;42.716;23.344;2023-05-25T09:19:19;95556.69;;;21.33;52.58
64668;BME280;51077;42.716;23.344;2023-05-25T09:21:44;95559.13;;;21.29;52.73
64668;BME280;51077;42.716;23.344;2023-05-25T09:24:10;95549.13;;;21.26;53.24
64668;BME280;51077;42.716;23.344;2023-05-25T09:26:36;95551.00;;;21.24;53.00
64668;BME280;51077;42.716;23.344;2023-05-25T09:29:02;95557.31;;;21.24;53.28
64668;BME280;51077;42.716;23.344;2023-05-25T09:31:27;95553.78;;;21.24;53.43
64668;BME280;51077;42.716;23.344;2023-05-25T09:33:53;95546.91;;;21.25;53.61
64668;BME280;51077;42.716;23.344;2023-05-25T09:36:24;95558.09;;;21.25;53.67
64668;BME280;51077;42.716;23.344;2023-05-25T09:38:53;95553.97;;;21.26;53.69
64668;BME280;51077;42.716;23.344;2023-05-25T09:41:19;95552.50;;;21.25;53.85
64668;BME280;51077;42.716;23.344;2023-05-25T09:43:46;95550.59;;;21.27;53.83
64668;BME280;51077;42.716;23.344;2023-05-25T09:46:12;95548.72;;;21.30;53.75
64668;BME280;51077;42.716;23.344;2023-05-25T09:48:38;95539.94;;;21.33;54.04
64668;BME280;51077;42.716;23.344;2023-05-25T09:51:05;95545.09;;;21.37;53.97
64668;BME280;51077;42.716;23.344;2023-05-25T09:53:31;95549.69;;;21.42;53.77
64668;BME280;51077;42.716;23.344;2023-05-25T09:55:57;95548.84;;;21.49;53.89
64668;BME280;51077;42.716;23.344;2023-05-25T09:58:22;95548.03;;;21.56;53.71
64668;BME280;51077;42.716;23.344;2023-05-25T10:00:54;95546.75;;;21.67;53.67
64668;BME280;51077;42.716;23.344;2023-05-25T10:03:19;95539.16;;;21.77;53.70
64668;BME280;51077;42.716;23.344;2023-05-25T10:05:47;95540.25;;;21.92;52.85
64668;BME280;51077;42.716;23.344;2023-05-25T10:08:13;95534.28;;;22.05;53.03
64668;BME280;51077;42.716;23.344;2023-05-25T10:10:39;95524.91;;;22.20;52.71
64668;BME280;51077;42.716;23.344;2023-05-25T10:13:07;95521.44;;;22.39;52.46
64668;BME280;51077;42.716;23.344;2023-05-25T10:15:39;95516.59;;;22.58;52.34
64668;BME280;51077;42.716;23.344;2023-05-25T10:18:08;95516.03;;;22.79;52.07
64668;BME280;51077;42.716;23.344;2023-05-25T10:20:35;95516.97;;;23.01;51.74
64668;BME280;51077;42.716;23.344;2023-05-25T10:23:08;95510.16;;;23.24;51.17
64668;BME280;51077;42.716;23.344;2023-05-25T10:28:13;95494.91;;;23.56;50.87
64668;BME280;51077;42.716;23.344;2023-05-25T10:30:40;95492.09;;;23.66;50.63
64668;BME280;51077;42.716;23.344;2023-05-25T10:33:06;95490.59;;;23.74;50.82
64668;BME280;51077;42.716;23.344;2023-05-25T10:35:31;95480.53;;;23.81;50.34
64668;BME280;51077;42.716;23.344;2023-05-25T10:37:59;95487.75;;;23.84;49.97
64668;BME280;51077;42.716;23.344;2023-05-25T10:40:26;95475.34;;;23.87;50.08
64668;BME280;51077;42.716;23.344;2023-05-25T10:42:51;95483.16;;;23.89;49.99
64668;BME280;51077;42.716;23.344;2023-05-25T10:45:18;95472.09;;;23.91;49.86
64668;BME280;51077;42.716;23.344;2023-05-25T10:47:43;95467.97;;;23.92;50.02
64668;BME280;51077;42.716;23.344;2023-05-25T10:50:24;95467.22;;;23.91;50.18
64668;BME280;51077;42.716;23.344;2023-05-25T10:53:07;95465.00;;;23.90;49.72
64668;BME280;51077;42.716;23.344;2023-05-25T10:56:01;95465.34;;;23.84;49.64
64668;BME280;51077;42.716;23.344;2023-05-25T10:58:28;95460.34;;;23.82;49.92
64668;BME280;51077;42.716;23.344;2023-05-25T11:01:02;95463.72;;;23.81;49.87
64668;BME280;51077;42.716;23.344;2023-05-25T11:06:11;95458.09;;;23.81;49.87
64668;BME280;51077;42.716;23.344;2023-05-25T11:08:50;95465.34;;;23.84;49.65
64668;BME280;51077;42.716;23.344;2023-05-25T11:11:17;95459.72;;;23.84;49.57
64668;BME280;51077;42.716;23.344;2023-05-25T11:13:44;95461.34;;;23.87;49.51
64668;BME280;51077;42.716;23.344;2023-05-25T11:16:14;95455.41;;;23.93;49.46
64668;BME280;51077;42.716;23.344;2023-05-25T11:18:45;95460.41;;;23.94;49.12
64668;BME280;51077;42.716;23.344;2023-05-25T11:26:21;95450.22;;;23.99;45.81
64668;BME280;51077;42.716;23.344;2023-05-25T11:28:47;95451.34;;;24.05;46.26
64668;BME280;51077;42.716;23.344;2023-05-25T11:31:13;95442.50;;;24.09;46.25
64668;BME280;51077;42.716;23.344;2023-05-25T11:33:39;95450.44;;;24.13;46.07
64668;BME280;51077;42.716;23.344;2023-05-25T11:36:07;95454.81;;;24.16;46.22
64668;BME280;51077;42.716;23.344;2023-05-25T11:38:32;95461.94;;;24.17;46.35
64668;BME280;51077;42.716;23.344;2023-05-25T11:41:02;95459.97;;;24.19;46.49
64668;BME280;51077;42.716;23.344;2023-05-25T11:43:30;95453.19;;;24.22;46.37
64668;BME280;51077;42.716;23.344;2023-05-25T11:45:58;95447.50;;;24.32;46.27
64668;BME280;51077;42.716;23.344;2023-05-25T11:48:24;95450.81;;;24.50;46.17
64668;BME280;51077;42.716;23.344;2023-05-25T11:51:03;95450.06;;;24.71;45.70
64668;BME280;51077;42.716;23.344;2023-05-25T11:53:29;95454.16;;;24.91;45.66
64668;BME280;51077;42.716;23.344;2023-05-25T11:55:55;95445.38;;;25.18;45.16
64668;BME280;51077;42.716;23.344;2023-05-25T11:58:20;95445.06;;;25.47;44.47
64668;BME280;51077;42.716;23.344;2023-05-25T12:00:45;95440.72;;;25.79;43.54
64668;BME280;51077;42.716;23.344;2023-05-25T12:03:28;95436.91;;;26.10;43.10
64668;BME280;51077;42.716;23.344;2023-05-25T12:05:54;95432.31;;;26.52;41.96
64668;BME280;51077;42.716;23.344;2023-05-25T12:08:31;95429.91;;;27.09;41.20
64668;BME280;51077;42.716;23.344;2023-05-25T12:10:56;95433.81;;;27.69;40.43
64668;BME280;51077;42.716;23.344;2023-05-25T12:13:22;95434.38;;;28.20;39.12
64668;BME280;51077;42.716;23.344;2023-05-25T12:15:47;95430.59;;;28.57;38.57
64668;BME280;51077;42.716;23.344;2023-05-25T12:18:13;95431.38;;;28.87;37.87
64668;BME280;51077;42.716;23.344;2023-05-25T12:20:39;95424.97;;;29.16;37.19
64668;BME280;51077;42.716;23.344;2023-05-25T12:23:05;95425.66;;;29.46;36.51
64668;BME280;51077;42.716;23.344;2023-05-25T12:25:31;95415.31;;;29.67;36.08
64668;BME280;51077;42.716;23.344;2023-05-25T12:28:13;95406.25;;;29.86;35.63
64668;BME280;51077;42.716;23.344;2023-05-25T12:30:39;95406.88;;;30.16;34.94
64668;BME280;51077;42.716;23.344;2023-05-25T12:33:04;95408.06;;;30.27;34.37
64668;BME280;51077;42.716;23.344;2023-05-25T12:35:43;95398.53;;;30.36;34.24
64668;BME280;51077;42.716;23.344;2023-05-25T12:38:13;95401.22;;;30.50;34.18
64668;BME280;51077;42.716;23.344;2023-05-25T12:40:40;95395.50;;;30.66;33.48
64668;BME280;51077;42.716;23.344;2023-05-25T12:43:05;95395.22;;;30.60;33.59
64668;BME280;51077;42.716;23.344;2023-05-25T12:45:31;95394.03;;;30.65;33.61
64668;BME280;51077;42.716;23.344;2023-05-25T12:47:57;95378.19;;;30.75;33.42
64668;BME280;51077;42.716;23.344;2023-05-25T12:50:22;95387.66;;;30.82;33.55
64668;BME280;51077;42.716;23.344;2023-05-25T12:52:48;95373.03;;;30.88;33.42
64668;BME280;51077;42.716;23.344;2023-05-25T12:55:27;95366.47;;;30.83;33.04
64668;BME280;51077;42.716;23.344;2023-05-25T12:57:57;95365.16;;;30.86;33.33
64668;BME280;51077;42.716;23.344;2023-05-25T13:00:30;95357.31;;;30.85;33.25
64668;BME280;51077;42.716;23.344;2023-05-25T13:02:56;95346.63;;;30.83;32.57
64668;BME280;51077;42.716;23.344;2023-05-25T13:05:23;95354.25;;;30.78;32.93
64668;BME280;51077;42.716;23.344;2023-05-25T13:07:49;95349.22;;;30.77;32.34